Time;durP1;ratioP1;P1;durP2;ratioP2;P2;SDS_P1;SDS_P2;PMS_P1;PMS_P2;Temp;Humidity;BMP_temperature;BMP_pressure;BME280_temperature;BME280_humidity;BME280_pressure;Samples;Min_cycle;Max_cycle;Signal;HPM_P1;HPM_P2
2021/10/03 00:00:42;;;;;;;;;;;;;;;20.94;59.62;98643.81;2072940;28;19952;-42
2021/10/03 00:01:45;;;;;;;;;;;;;;;20.94;59.64;98646.56;2070918;28;19917;-42
2021/10/03 00:02:48;;;;;;;;;;;;;;;20.94;59.76;98638.34;2076911;28;19923;-42
2021/10/03 00:03:50;;;;;;;;;;;;;;;20.94;59.82;98632.88;2073908;28;20516;-42
2021/10/03 00:04:51;;;;;;;;;;;;;;;20.94;59.68;98632.88;2077991;28;19927;-42
2021/10/03 00:05:52;;;;;;;;;;;;;;;20.94;59.74;98630.13;2069872;28;20452;-42
2021/10/03 00:06:53;;;;;;;;;;;;;;;20.95;59.57;98636.47;2070524;28;19927;-42
2021/10/03 00:07:59;;;;;;;;;;;;;;;20.94;59.54;98621.91;2070962;28;19917;-42
2021/10/03 00:08:59;;;;;;;;;;;;;;;20.94;59.42;98621.91;2078174;28;20251;-42
2021/10/03 00:10:00;;;;;;;;;;;;;;;20.94;59.60;98623.81;2075584;28;20402;-42
2021/10/03 00:11:00;;;;;;;;;;;;;;;20.94;59.49;98618.34;2078415;28;20365;-42
2021/10/03 00:12:01;;;;;;;;;;;;;;;20.93;59.74;98620.22;2073647;28;19921;-42
2021/10/03 00:13:04;;;;;;;;;;;;;;;20.94;59.55;98621.91;2077296;28;19912;-42
2021/10/03 00:14:05;;;;;;;;;;;;;;;20.93;59.53;98612.00;2077905;28;20891;-42
2021/10/03 00:15:07;;;;;;;;;;;;;;;20.93;59.55;98609.28;2071888;28;20382;-42
2021/10/03 00:16:07;;;;;;;;;;;;;;;20.94;59.63;98610.13;2070262;28;19909;-42
2021/10/03 00:17:08;;;;;;;;;;;;;;;20.93;59.54;98608.44;2072657;28;19947;-42
2021/10/03 00:18:09;;;;;;;;;;;;;;;20.94;59.54;98600.00;2076695;28;19909;-42
2021/10/03 00:19:09;;;;;;;;;;;;;;;20.94;59.57;98597.25;2077090;28;19928;-42
2021/10/03 00:20:11;;;;;;;;;;;;;;;20.94;59.66;98588.19;2075118;28;20090;-42
2021/10/03 00:21:12;;;;;;;;;;;;;;;20.94;59.77;98590.94;2077694;28;19924;-42
2021/10/03 00:22:13;;;;;;;;;;;;;;;20.93;59.87;98587.38;2077410;28;19909;-42
2021/10/03 00:23:14;;;;;;;;;;;;;;;20.93;59.64;98587.38;2074703;28;20353;-42
2021/10/03 00:24:14;;;;;;;;;;;;;;;20.93;59.52;98581.88;2078604;28;19944;-42
2021/10/03 00:25:15;;;;;;;;;;;;;;;20.93;59.80;98581.88;2064424;28;19931;-42
2021/10/03 00:26:15;;;;;;;;;;;;;;;20.94;59.50;98583.56;2067092;28;19921;-42
2021/10/03 00:27:16;;;;;;;;;;;;;;;20.93;59.81;98581.03;2077155;28;19909;-42
2021/10/03 00:28:16;;;;;;;;;;;;;;;20.93;59.90;98581.03;2074230;28;20322;-42
2021/10/03 00:29:17;;;;;;;;;;;;;;;20.93;59.56;98576.41;2078789;28;20344;-42
2021/10/03 00:30:17;;;;;;;;;;;;;;;20.93;59.74;98570.94;2075421;28;19917;-42
2021/10/03 00:31:18;;;;;;;;;;;;;;;20.94;59.87;98571.78;2059544;28;19922;-42
2021/10/03 00:32:18;;;;;;;;;;;;;;;20.93;59.69;98565.44;2060264;28;20476;-42
2021/10/03 00:33:19;;;;;;;;;;;;;;;20.93;59.64;98562.72;2076641;28;19916;-42
2021/10/03 00:34:19;;;;;;;;;;;;;;;20.93;59.71;98565.44;2073017;28;19913;-42
2021/10/03 00:35:20;;;;;;;;;;;;;;;20.94;59.87;98569.03;2074280;28;19927;-42
2021/10/03 00:36:20;;;;;;;;;;;;;;;20.91;59.60;98562.06;2069694;28;20272;-42
2021/10/03 00:37:20;;;;;;;;;;;;;;;20.92;59.77;98563.78;2072835;28;20324;-42
2021/10/03 00:38:21;;;;;;;;;;;;;;;20.94;59.84;98572.59;2071328;28;20227;-42
2021/10/03 00:39:21;;;;;;;;;;;;;;;20.94;59.81;98569.88;2076312;28;20355;-42
2021/10/03 00:40:22;;;;;;;;;;;;;;;20.93;59.97;98568.19;2073614;28;19917;-42
2021/10/03 00:41:22;;;;;;;;;;;;;;;20.94;59.92;98575.34;2069725;28;19924;-42
2021/10/03 00:42:22;;;;;;;;;;;;;;;20.94;59.67;98564.38;2076987;28;19924;-42
2021/10/03 00:43:23;;;;;;;;;;;;;;;20.94;59.68;98567.13;2074308;28;20224;-42
2021/10/03 00:44:23;;;;;;;;;;;;;;;20.94;59.73;98569.88;2070330;28;20312;-42
2021/10/03 00:45:24;;;;;;;;;;;;;;;20.93;59.72;98559.97;2071100;28;19920;-42
2021/10/03 00:46:24;;;;;;;;;;;;;;;20.94;59.90;98561.66;2069932;28;19917;-42
2021/10/03 00:47:24;;;;;;;;;;;;;;;20.93;59.80;98559.97;2069728;28;19917;-42
2021/10/03 00:48:25;;;;;;;;;;;;;;;20.93;59.81;98557.22;2067687;28;19910;-42
2021/10/03 00:49:25;;;;;;;;;;;;;;;20.93;59.91;98559.97;2075555;28;19920;-42
2021/10/03 00:50:27;;;;;;;;;;;;;;;20.93;59.82;98549.03;2075006;28;20801;-42
2021/10/03 00:51:27;;;;;;;;;;;;;;;20.92;59.86;98546.47;2071943;28;19921;-42
2021/10/03 00:52:28;;;;;;;;;;;;;;;20.93;59.95;98546.28;2072496;28;20270;-42
2021/10/03 00:53:29;;;;;;;;;;;;;;;20.92;59.63;98541.84;2074222;28;19942;-42
2021/10/03 00:54:30;;;;;;;;;;;;;;;20.92;59.86;98530.91;2076856;28;19930;-42
2021/10/03 00:55:30;;;;;;;;;;;;;;;20.92;59.76;98535.50;2074821;28;19917;-42
2021/10/03 00:56:30;;;;;;;;;;;;;;;20.93;59.72;98538.06;2073958;28;19909;-42
2021/10/03 00:57:31;;;;;;;;;;;;;;;20.94;60.00;98536.16;2073207;28;19912;-42
2021/10/03 00:58:31;;;;;;;;;;;;;;;20.93;59.98;98539.97;2077292;28;20235;-42
2021/10/03 00:59:32;;;;;;;;;;;;;;;20.93;59.83;98538.06;2074195;28;19959;-42
2021/10/03 01:00:33;;;;;;;;;;;;;;;20.93;60.04;98537.22;2077144;28;19913;-42
2021/10/03 01:01:33;;;;;;;;;;;;;;;20.94;59.90;98538.91;2077099;28;19955;-42
2021/10/03 01:02:35;;;;;;;;;;;;;;;20.94;60.11;98542.47;2071642;28;20000;-42
2021/10/03 01:03:36;;;;;;;;;;;;;;;20.94;59.95;98536.16;2077993;28;20015;-43
2021/10/03 01:04:36;;;;;;;;;;;;;;;20.93;60.08;98535.31;2076174;28;19917;-42
2021/10/03 01:05:37;;;;;;;;;;;;;;;20.93;59.77;98538.06;2075133;28;19967;-42
2021/10/03 01:06:39;;;;;;;;;;;;;;;20.92;59.91;98532.78;2073038;28;20456;-42
2021/10/03 01:07:40;;;;;;;;;;;;;;;20.93;59.92;98543.53;2075731;28;20386;-42
2021/10/03 01:08:40;;;;;;;;;;;;;;;20.94;60.04;98539.75;2075947;28;20210;-42
2021/10/03 01:09:41;;;;;;;;;;;;;;;20.93;60.04;98543.53;2074595;28;20560;-42
2021/10/03 01:10:41;;;;;;;;;;;;;;;20.93;60.02;98531.75;2071497;28;20062;-42
2021/10/03 01:11:41;;;;;;;;;;;;;;;20.93;60.00;98535.31;2073948;28;19927;-41
2021/10/03 01:12:42;;;;;;;;;;;;;;;20.93;59.98;98527.09;2076276;28;20742;-42
2021/10/03 01:13:45;;;;;;;;;;;;;;;20.93;60.07;98527.09;2074361;28;19925;-42
2021/10/03 01:14:45;;;;;;;;;;;;;;;20.93;59.88;98529.84;2075776;28;19912;-42
2021/10/03 01:15:46;;;;;;;;;;;;;;;20.92;59.96;98525.44;2072306;28;19948;-42
2021/10/03 01:16:47;;;;;;;;;;;;;;;20.92;60.14;98519.94;2073750;28;20353;-42
2021/10/03 01:17:47;;;;;;;;;;;;;;;20.92;60.01;98519.06;2076546;28;20357;-42
2021/10/03 01:18:48;;;;;;;;;;;;;;;20.92;59.84;98514.47;2074540;28;19938;-42
2021/10/03 01:19:48;;;;;;;;;;;;;;;20.93;60.04;98510.66;2076110;28;19966;-42
2021/10/03 01:20:49;;;;;;;;;;;;;;;20.93;60.17;98507.09;2076318;28;19948;-42
2021/10/03 01:21:49;;;;;;;;;;;;;;;20.93;60.02;98510.66;2070959;28;19924;-42
2021/10/03 01:22:50;;;;;;;;;;;;;;;20.93;59.94;98498.88;2071544;28;19927;-42
2021/10/03 01:23:54;;;;;;;;;;;;;;;20.92;60.26;98500.78;2067665;28;19961;-42
2021/10/03 01:24:57;;;;;;;;;;;;;;;20.93;60.13;98502.44;2073735;28;20322;-42
2021/10/03 01:25:57;;;;;;;;;;;;;;;20.92;60.00;98502.66;2075265;28;20765;-42
2021/10/03 01:26:57;;;;;;;;;;;;;;;20.91;60.18;98496.31;2070592;28;20240;-42
2021/10/03 01:27:58;;;;;;;;;;;;;;;20.92;59.86;98502.66;2076808;28;20530;-42
2021/10/03 01:28:58;;;;;;;;;;;;;;;20.93;59.97;98493.41;2067871;28;19921;-42
2021/10/03 01:29:59;;;;;;;;;;;;;;;20.94;60.03;98498.66;2074678;28;19917;-42
2021/10/03 01:30:59;;;;;;;;;;;;;;;20.93;60.24;98488.75;2076662;28;19928;-42
2021/10/03 01:32:00;;;;;;;;;;;;;;;20.93;60.30;98487.91;2078147;28;19923;-42
2021/10/03 01:33:00;;;;;;;;;;;;;;;20.93;60.10;98494.25;2076899;28;20024;-42
2021/10/03 01:34:01;;;;;;;;;;;;;;;20.93;60.22;98494.25;2076460;28;20019;-42
2021/10/03 01:35:02;;;;;;;;;;;;;;;20.92;60.28;98486.22;2074148;28;20014;-42
2021/10/03 01:36:05;;;;;;;;;;;;;;;20.94;60.09;98497.81;2076778;28;19924;-42
2021/10/03 01:37:06;;;;;;;;;;;;;;;20.93;60.07;98493.41;2074637;28;20192;-42
2021/10/03 01:38:07;;;;;;;;;;;;;;;20.94;59.99;98495.91;2075165;28;19916;-42
2021/10/03 01:39:09;;;;;;;;;;;;;;;20.93;59.90;98493.41;2083788;28;19909;-42
2021/10/03 01:40:10;;;;;;;;;;;;;;;20.94;60.09;98495.06;2074721;28;19916;-42
2021/10/03 01:41:10;;;;;;;;;;;;;;;20.93;59.96;98501.63;2076610;28;19908;-42
2021/10/03 01:42:10;;;;;;;;;;;;;;;20.93;59.96;98496.13;2075844;28;19921;-42
2021/10/03 01:43:11;;;;;;;;;;;;;;;20.93;60.27;98501.63;2065822;28;19983;-42
2021/10/03 01:44:11;;;;;;;;;;;;;;;20.93;60.16;98501.63;2063414;28;19916;-42
2021/10/03 01:45:13;;;;;;;;;;;;;;;20.92;60.26;98499.91;2071063;28;19921;-42
2021/10/03 01:46:13;;;;;;;;;;;;;;;20.93;60.07;98502.44;2074852;28;19917;-42
2021/10/03 01:47:14;;;;;;;;;;;;;;;20.93;59.97;98496.97;2072770;28;19917;-42
2021/10/03 01:48:18;;;;;;;;;;;;;;;20.95;60.06;98499.53;2067362;28;19924;-42
2021/10/03 01:49:19;;;;;;;;;;;;;;;20.93;60.35;98490.66;2072154;28;19925;-42
2021/10/03 01:50:19;;;;;;;;;;;;;;;20.94;60.30;98498.66;2074550;28;20015;-42
2021/10/03 01:51:20;;;;;;;;;;;;;;;20.94;60.28;98490.44;2076269;28;20511;-42
2021/10/03 01:52:20;;;;;;;;;;;;;;;20.92;60.08;98491.69;2071755;28;20347;-42
2021/10/03 01:53:23;;;;;;;;;;;;;;;20.93;60.30;98483.28;2065834;28;20260;-42
2021/10/03 01:54:23;;;;;;;;;;;;;;;20.94;60.22;98497.81;2068877;28;20121;-42
2021/10/03 01:55:23;;;;;;;;;;;;;;;20.93;60.07;98488.75;2071745;28;19917;-42
2021/10/03 01:56:25;;;;;;;;;;;;;;;20.93;60.24;98494.25;2072238;28;20410;-42
2021/10/03 01:57:25;;;;;;;;;;;;;;;20.94;60.09;98489.59;2075554;28;19923;-42
2021/10/03 01:58:28;;;;;;;;;;;;;;;20.93;60.05;98490.66;2076331;28;20149;-42
2021/10/03 01:59:29;;;;;;;;;;;;;;;20.94;60.18;98489.59;2080367;28;19921;-42
2021/10/03 02:00:29;;;;;;;;;;;;;;;20.93;60.23;98487.91;2071574;28;19921;-42
2021/10/03 02:01:31;;;;;;;;;;;;;;;20.93;60.10;98488.75;2080660;28;19922;-42
2021/10/03 02:02:32;;;;;;;;;;;;;;;20.93;60.26;98483.28;2072970;28;19905;-42
2021/10/03 02:03:32;;;;;;;;;;;;;;;20.93;59.99;98488.75;2080336;28;20536;-42
2021/10/03 02:04:32;;;;;;;;;;;;;;;20.93;60.15;98488.75;2074734;28;19908;-42
2021/10/03 02:05:35;;;;;;;;;;;;;;;20.93;60.18;98485.19;2078551;28;19948;-42
2021/10/03 02:06:40;;;;;;;;;;;;;;;20.94;60.29;98478.66;2068106;28;20506;-42
2021/10/03 02:07:41;;;;;;;;;;;;;;;20.94;60.18;98484.13;2073456;28;20343;-42
2021/10/03 02:08:41;;;;;;;;;;;;;;;20.93;60.29;98479.69;2076635;28;19973;-42
2021/10/03 02:09:41;;;;;;;;;;;;;;;20.94;60.23;98482.22;2076585;28;19952;-42
2021/10/03 02:10:44;;;;;;;;;;;;;;;20.93;60.05;98483.28;2069805;28;19948;-42
2021/10/03 02:11:49;;;;;;;;;;;;;;;20.94;60.32;98475.91;2066579;28;19913;-42
2021/10/03 02:12:49;;;;;;;;;;;;;;;20.93;60.17;98477.81;2073783;28;19916;-42
2021/10/03 02:13:49;;;;;;;;;;;;;;;20.93;60.38;98477.81;2072607;28;19988;-42
2021/10/03 02:14:50;;;;;;;;;;;;;;;20.93;60.05;98477.81;2068867;28;20408;-42
2021/10/03 02:15:50;;;;;;;;;;;;;;;20.93;60.18;98469.59;2069347;28;19925;-42
2021/10/03 02:16:52;;;;;;;;;;;;;;;20.93;60.37;98466.00;2076436;28;19939;-42
2021/10/03 02:17:52;;;;;;;;;;;;;;;20.94;60.20;98471.25;2077948;28;19917;-42
2021/10/03 02:18:54;;;;;;;;;;;;;;;20.93;60.31;98471.47;2076925;28;20349;-42
2021/10/03 02:19:54;;;;;;;;;;;;;;;20.93;60.21;98461.38;2074696;28;19921;-42
2021/10/03 02:20:55;;;;;;;;;;;;;;;20.93;60.26;98469.59;2076082;28;19923;-42
2021/10/03 02:21:56;;;;;;;;;;;;;;;20.93;60.20;98461.38;2072546;28;19916;-42
2021/10/03 02:22:56;;;;;;;;;;;;;;;20.94;60.15;98463.03;2073241;28;19917;-42
2021/10/03 02:23:56;;;;;;;;;;;;;;;20.93;60.36;98455.88;2073883;28;19991;-42
2021/10/03 02:24:57;;;;;;;;;;;;;;;20.93;59.99;98461.38;2077280;28;19963;-42
2021/10/03 02:25:57;;;;;;;;;;;;;;;20.93;60.26;98460.53;2073007;28;19917;-42
2021/10/03 02:26:58;;;;;;;;;;;;;;;20.93;60.39;98460.53;2076928;28;20383;-42
2021/10/03 02:27:59;;;;;;;;;;;;;;;20.92;60.35;98464.28;2073098;28;20300;-42
2021/10/03 02:28:59;;;;;;;;;;;;;;;20.94;60.23;98463.03;2074927;28;20429;-42
2021/10/03 02:30:00;;;;;;;;;;;;;;;20.93;60.06;98461.38;2068725;28;19917;-42
2021/10/03 02:31:04;;;;;;;;;;;;;;;20.93;60.13;98450.41;2071607;28;20374;-42
2021/10/03 02:32:04;;;;;;;;;;;;;;;20.93;60.37;98455.06;2072203;28;19916;-42
2021/10/03 02:33:04;;;;;;;;;;;;;;;20.93;60.29;98455.88;2075009;28;19956;-42
2021/10/03 02:34:05;;;;;;;;;;;;;;;20.93;60.25;98461.38;2073751;28;19917;-42
2021/10/03 02:35:07;;;;;;;;;;;;;;;20.93;60.13;98461.38;2073720;28;19969;-42
2021/10/03 02:36:07;;;;;;;;;;;;;;;20.93;60.22;98450.41;2071080;28;20007;-42
2021/10/03 02:37:08;;;;;;;;;;;;;;;20.93;60.31;98455.88;2076704;28;20137;-42
2021/10/03 02:38:09;;;;;;;;;;;;;;;20.93;60.41;98444.09;2074440;28;19967;-42
2021/10/03 02:39:10;;;;;;;;;;;;;;;20.94;60.28;98445.78;2073623;28;19999;-42
2021/10/03 02:40:12;;;;;;;;;;;;;;;20.93;60.24;98439.47;2073697;28;19925;-42
2021/10/03 02:41:13;;;;;;;;;;;;;;;20.93;60.10;98435.88;2073314;28;20014;-42
2021/10/03 02:42:13;;;;;;;;;;;;;;;20.93;60.25;98444.94;2068090;28;19980;-42
2021/10/03 02:43:14;;;;;;;;;;;;;;;20.92;60.07;98435.03;2071402;28;20489;-42
2021/10/03 02:44:14;;;;;;;;;;;;;;;20.93;60.36;98431.25;2071067;28;20860;-42
2021/10/03 02:45:15;;;;;;;;;;;;;;;20.93;60.39;98431.25;2069515;28;19917;-42
2021/10/03 02:46:17;;;;;;;;;;;;;;;20.93;60.42;98430.41;2075403;28;20335;-42
2021/10/03 02:47:18;;;;;;;;;;;;;;;20.92;60.04;98426.81;2073305;28;20307;-42
2021/10/03 02:48:20;;;;;;;;;;;;;;;20.92;60.21;98420.47;2077211;28;20006;-42
2021/10/03 02:49:20;;;;;;;;;;;;;;;20.93;60.38;98428.50;2073610;28;20704;-42
2021/10/03 02:50:21;;;;;;;;;;;;;;;20.93;60.25;98435.88;2076034;28;20361;-42
2021/10/03 02:51:23;;;;;;;;;;;;;;;20.93;60.15;98428.50;2074040;28;20031;-42
2021/10/03 02:52:23;;;;;;;;;;;;;;;20.93;60.29;98417.53;2075623;28;19916;-42
2021/10/03 02:53:24;;;;;;;;;;;;;;;20.91;60.23;98416.91;2076956;28;19927;-42
2021/10/03 02:54:25;;;;;;;;;;;;;;;20.92;60.25;98432.31;2075638;28;20090;-42
2021/10/03 02:55:25;;;;;;;;;;;;;;;20.92;60.21;98428.69;2065730;28;20327;-42
2021/10/03 02:56:27;;;;;;;;;;;;;;;20.93;60.21;98428.50;2069323;28;20006;-42
2021/10/03 02:57:27;;;;;;;;;;;;;;;20.93;60.14;98424.91;2073839;28;19967;-41
2021/10/03 02:58:29;;;;;;;;;;;;;;;20.92;60.30;98425.94;2075082;28;19944;-42
2021/10/03 02:59:30;;;;;;;;;;;;;;;20.93;60.32;98423.03;2071502;28;19925;-42
2021/10/03 03:00:31;;;;;;;;;;;;;;;20.92;60.30;98420.47;2070326;28;19917;-42
2021/10/03 03:01:32;;;;;;;;;;;;;;;20.92;60.23;98421.34;2071961;28;19917;-42
2021/10/03 03:02:32;;;;;;;;;;;;;;;20.93;60.24;98419.44;2070705;28;19932;-42
2021/10/03 03:03:35;;;;;;;;;;;;;;;20.93;60.40;98422.19;2073006;28;19917;-42
2021/10/03 03:04:35;;;;;;;;;;;;;;;20.93;60.28;98425.75;2068575;28;19918;-42
2021/10/03 03:05:35;;;;;;;;;;;;;;;20.92;60.39;98426.81;2074825;28;19920;-42
2021/10/03 03:06:36;;;;;;;;;;;;;;;20.92;60.31;98424.09;2072141;28;19916;-42
2021/10/03 03:07:36;;;;;;;;;;;;;;;20.92;60.47;98425.94;2073369;28;20121;-42
2021/10/03 03:08:37;;;;;;;;;;;;;;;20.92;60.50;98415.88;2073745;28;19963;-42
2021/10/03 03:09:37;;;;;;;;;;;;;;;20.92;60.17;98420.47;2077384;28;20237;-42
2021/10/03 03:10:37;;;;;;;;;;;;;;;20.92;60.26;98415.00;2077550;28;19923;-42
2021/10/03 03:11:37;;;;;;;;;;;;;;;20.93;60.07;98419.44;2081590;28;19917;-42
2021/10/03 03:12:38;;;;;;;;;;;;;;;20.93;60.43;98422.19;2081659;28;19981;-42
2021/10/03 03:13:38;;;;;;;;;;;;;;;20.92;60.22;98413.13;2078765;28;20274;-42
2021/10/03 03:14:38;;;;;;;;;;;;;;;20.93;60.44;98414.81;2075408;28;20151;-42
2021/10/03 03:15:39;;;;;;;;;;;;;;;20.93;60.32;98417.53;2072035;28;20675;-42
2021/10/03 03:16:47;;;;;;;;;;;;;;;20.92;60.30;98420.47;2068985;28;20222;-42
2021/10/03 03:17:47;;;;;;;;;;;;;;;20.91;60.16;98414.16;2077035;28;19928;-42
2021/10/03 03:18:47;;;;;;;;;;;;;;;20.93;60.51;98420.28;2070843;28;19960;-42
2021/10/03 03:19:47;;;;;;;;;;;;;;;20.93;60.45;98411.22;2068636;28;19913;-42
2021/10/03 03:20:48;;;;;;;;;;;;;;;20.93;60.25;98416.72;2075263;28;20730;-42
2021/10/03 03:21:48;;;;;;;;;;;;;;;20.93;60.15;98412.06;2073897;28;20362;-42
2021/10/03 03:22:49;;;;;;;;;;;;;;;20.93;60.43;98405.75;2069056;28;19995;-42
2021/10/03 03:23:49;;;;;;;;;;;;;;;20.93;60.41;98411.22;2074331;28;19992;-42
2021/10/03 03:24:49;;;;;;;;;;;;;;;20.93;60.32;98414.81;2077028;28;20487;-42
2021/10/03 03:25:50;;;;;;;;;;;;;;;20.92;60.40;98402.16;2073702;28;19912;-42
2021/10/03 03:26:50;;;;;;;;;;;;;;;20.93;60.44;98406.59;2076702;28;19943;-42
2021/10/03 03:27:50;;;;;;;;;;;;;;;20.93;60.50;98408.50;2074382;28;19966;-42
2021/10/03 03:28:51;;;;;;;;;;;;;;;20.93;60.31;98400.28;2072493;28;19919;-42
2021/10/03 03:29:51;;;;;;;;;;;;;;;20.93;60.37;98401.13;2069163;28;19978;-42
2021/10/03 03:30:51;;;;;;;;;;;;;;;20.92;60.38;98398.56;2068297;28;19921;-42
2021/10/03 03:31:53;;;;;;;;;;;;;;;20.91;60.49;98397.72;2070170;28;19920;-42
2021/10/03 03:32:54;;;;;;;;;;;;;;;20.92;60.51;98398.56;2073853;28;20003;-43
2021/10/03 03:33:54;;;;;;;;;;;;;;;20.93;60.45;98406.59;2073421;28;19917;-42
2021/10/03 03:34:54;;;;;;;;;;;;;;;20.91;60.41;98392.25;2070566;28;20668;-42
2021/10/03 03:35:55;;;;;;;;;;;;;;;20.93;60.48;98394.78;2070670;28;19987;-42
2021/10/03 03:36:55;;;;;;;;;;;;;;;20.93;60.33;98395.63;2062088;28;19917;-42
2021/10/03 03:37:56;;;;;;;;;;;;;;;20.93;60.25;98398.38;2065126;28;19925;-42
2021/10/03 03:38:56;;;;;;;;;;;;;;;20.92;60.30;98388.47;2063179;28;19921;-42
2021/10/03 03:39:56;;;;;;;;;;;;;;;20.92;60.52;98393.09;2059879;28;19917;-42
2021/10/03 03:40:57;;;;;;;;;;;;;;;20.92;60.41;98396.69;2070444;28;19998;-42
2021/10/03 03:41:57;;;;;;;;;;;;;;;20.93;60.34;98401.13;2068773;28;19929;-42
2021/10/03 03:42:58;;;;;;;;;;;;;;;20.93;60.25;98406.59;2072287;28;19923;-42
2021/10/03 03:43:58;;;;;;;;;;;;;;;20.93;60.12;98395.63;2074437;28;19920;-42
2021/10/03 03:44:58;;;;;;;;;;;;;;;20.93;60.18;98398.38;2070114;28;19917;-42
2021/10/03 03:45:59;;;;;;;;;;;;;;;20.92;60.35;98393.09;2072805;28;19924;-42
2021/10/03 03:47:00;;;;;;;;;;;;;;;20.93;60.31;98401.13;2074712;28;19927;-42
2021/10/03 03:48:01;;;;;;;;;;;;;;;20.93;60.31;98398.38;2075122;28;19963;-42
2021/10/03 03:49:02;;;;;;;;;;;;;;;20.92;60.35;98393.97;2073139;28;20295;-42
2021/10/03 03:50:05;;;;;;;;;;;;;;;20.91;60.35;98396.88;2070160;28;20290;-42
2021/10/03 03:51:05;;;;;;;;;;;;;;;20.93;60.16;98395.63;2068802;28;20058;-42
2021/10/03 03:52:06;;;;;;;;;;;;;;;20.93;60.29;98386.56;2069343;28;20459;-42
2021/10/03 03:53:06;;;;;;;;;;;;;;;20.93;60.32;98392.91;2068635;28;20280;-42
2021/10/03 03:54:06;;;;;;;;;;;;;;;20.93;60.28;98390.16;2071641;28;19916;-42
2021/10/03 03:55:08;;;;;;;;;;;;;;;20.93;60.28;98395.63;2069640;28;19936;-42
2021/10/03 03:56:08;;;;;;;;;;;;;;;20.93;60.20;98398.38;2070628;28;20058;-42
2021/10/03 03:57:08;;;;;;;;;;;;;;;20.92;60.30;98398.56;2074412;28;20286;-42
2021/10/03 03:58:09;;;;;;;;;;;;;;;20.94;60.20;98401.94;2074161;28;19921;-42
2021/10/03 03:59:09;;;;;;;;;;;;;;;20.93;60.47;98401.13;2073919;28;19924;-42
2021/10/03 04:00:10;;;;;;;;;;;;;;;20.93;60.47;98395.63;2071696;28;20069;-42
2021/10/03 04:01:11;;;;;;;;;;;;;;;20.93;60.37;98395.63;2071452;28;19924;-42
2021/10/03 04:02:12;;;;;;;;;;;;;;;20.93;60.44;98398.38;2073642;28;19955;-42
2021/10/03 04:03:12;;;;;;;;;;;;;;;20.93;60.44;98398.38;2066486;28;19917;-42
2021/10/03 04:04:12;;;;;;;;;;;;;;;20.93;60.36;98401.13;2073127;28;20703;-42
2021/10/03 04:05:12;;;;;;;;;;;;;;;20.93;60.37;98403.00;2074406;28;19912;-42
2021/10/03 04:06:13;;;;;;;;;;;;;;;20.93;60.31;98406.59;2072369;28;20019;-42
2021/10/03 04:07:13;;;;;;;;;;;;;;;20.94;60.40;98401.94;2077753;28;19912;-42
2021/10/03 04:08:13;;;;;;;;;;;;;;;20.92;60.31;98404.03;2073738;28;19940;-42
2021/10/03 04:09:14;;;;;;;;;;;;;;;20.93;60.33;98401.13;2076209;28;20127;-42
2021/10/03 04:10:14;;;;;;;;;;;;;;;20.94;60.46;98408.28;2066162;28;19995;-42
2021/10/03 04:11:14;;;;;;;;;;;;;;;20.93;60.41;98408.50;2067162;28;19931;-42
2021/10/03 04:12:15;;;;;;;;;;;;;;;20.93;60.51;98403.84;2071971;28;19917;-42
2021/10/03 04:13:15;;;;;;;;;;;;;;;20.93;60.40;98403.84;2074829;28;20645;-42
2021/10/03 04:14:15;;;;;;;;;;;;;;;20.93;60.39;98392.91;2073924;28;20572;-42
2021/10/03 04:15:16;;;;;;;;;;;;;;;20.93;60.32;98401.13;2074110;28;19956;-42
2021/10/03 04:16:16;;;;;;;;;;;;;;;20.93;60.40;98405.75;2076136;28;19919;-42
2021/10/03 04:17:16;;;;;;;;;;;;;;;20.94;60.48;98405.53;2075351;28;20042;-42
2021/10/03 04:18:17;;;;;;;;;;;;;;;20.93;60.18;98403.84;2071891;28;20556;-42
2021/10/03 04:19:17;;;;;;;;;;;;;;;20.93;60.39;98401.13;2068714;28;19924;-42
2021/10/03 04:20:17;;;;;;;;;;;;;;;20.93;60.29;98398.38;2072709;28;19917;-42
2021/10/03 04:21:17;;;;;;;;;;;;;;;20.93;60.49;98403.84;2075855;28;19923;-42
2021/10/03 04:22:18;;;;;;;;;;;;;;;20.93;60.50;98403.84;2074706;28;19959;-42
2021/10/03 04:23:18;;;;;;;;;;;;;;;20.94;60.29;98400.06;2074328;28;19928;-42
2021/10/03 04:24:18;;;;;;;;;;;;;;;20.94;60.38;98396.47;2081095;28;20372;-42
2021/10/03 04:25:19;;;;;;;;;;;;;;;20.93;60.39;98395.63;2072025;28;19909;-42
2021/10/03 04:26:20;;;;;;;;;;;;;;;20.94;60.45;98397.31;2076352;28;20357;-42
2021/10/03 04:27:20;;;;;;;;;;;;;;;20.92;60.41;98393.97;2072515;28;19940;-42
2021/10/03 04:28:21;;;;;;;;;;;;;;;20.94;60.58;98399.22;2077693;28;19913;-42
2021/10/03 04:29:22;;;;;;;;;;;;;;;20.93;60.45;98392.91;2074616;28;19976;-42
2021/10/03 04:30:22;;;;;;;;;;;;;;;20.93;60.47;98392.91;2073398;28;19909;-42
2021/10/03 04:31:22;;;;;;;;;;;;;;;20.93;60.39;98398.38;2076468;28;20382;-42
2021/10/03 04:32:23;;;;;;;;;;;;;;;20.93;60.42;98390.16;2072395;28;20297;-42
2021/10/03 04:33:23;;;;;;;;;;;;;;;20.93;60.45;98390.16;2074736;28;20184;-43
2021/10/03 04:34:23;;;;;;;;;;;;;;;20.94;60.20;98396.47;2075758;28;19916;-42
2021/10/03 04:35:23;;;;;;;;;;;;;;;20.93;60.67;98390.16;2076127;28;20078;-42
2021/10/03 04:36:24;;;;;;;;;;;;;;;20.93;60.51;98395.63;2068909;28;19969;-42
2021/10/03 04:37:24;;;;;;;;;;;;;;;20.93;60.54;98390.16;2065399;28;20738;-42
2021/10/03 04:38:25;;;;;;;;;;;;;;;20.94;60.29;98386.34;2076677;28;21129;-42
2021/10/03 04:39:26;;;;;;;;;;;;;;;20.93;60.36;98390.16;2076410;28;19978;-42
2021/10/03 04:40:26;;;;;;;;;;;;;;;20.94;60.29;98391.84;2075514;28;19920;-42
2021/10/03 04:41:26;;;;;;;;;;;;;;;20.94;60.42;98396.47;2074969;28;19921;-42
2021/10/03 04:42:26;;;;;;;;;;;;;;;20.93;60.46;98390.16;2074402;28;19924;-42
2021/10/03 04:43:27;;;;;;;;;;;;;;;20.93;60.51;98392.06;2075879;28;19962;-42
2021/10/03 04:44:27;;;;;;;;;;;;;;;20.93;60.36;98398.38;2076286;28;19920;-42
2021/10/03 04:45:27;;;;;;;;;;;;;;;20.93;60.67;98395.63;2075798;28;19916;-42
2021/10/03 04:46:28;;;;;;;;;;;;;;;20.94;60.49;98394.56;2068284;28;20338;-42
2021/10/03 04:47:28;;;;;;;;;;;;;;;20.93;60.40;98381.09;2068061;28;20244;-42
2021/10/03 04:48:28;;;;;;;;;;;;;;;20.93;60.39;98390.16;2077854;28;20220;-42
2021/10/03 04:49:29;;;;;;;;;;;;;;;20.93;60.68;98386.56;2074030;28;19939;-42
2021/10/03 04:50:29;;;;;;;;;;;;;;;20.94;60.49;98380.88;2075270;28;19963;-42
2021/10/03 04:51:29;;;;;;;;;;;;;;;20.94;60.48;98380.03;2080200;28;19922;-42
2021/10/03 04:52:29;;;;;;;;;;;;;;;20.93;60.69;98376.47;2073169;28;19909;-42
2021/10/03 04:53:30;;;;;;;;;;;;;;;20.93;60.34;98379.19;2076577;28;19922;-42
2021/10/03 04:54:30;;;;;;;;;;;;;;;20.93;60.32;98373.72;2073945;28;19974;-42
2021/10/03 04:55:30;;;;;;;;;;;;;;;20.93;60.46;98362.75;2076519;28;19909;-42
2021/10/03 04:56:31;;;;;;;;;;;;;;;20.92;60.40;98365.69;2075798;28;19924;-42
2021/10/03 04:57:31;;;;;;;;;;;;;;;20.93;60.46;98376.47;2072563;28;19904;-42
2021/10/03 04:58:33;;;;;;;;;;;;;;;20.93;60.53;98368.25;2078500;28;19912;-42
2021/10/03 04:59:33;;;;;;;;;;;;;;;20.93;60.53;98365.50;2074015;28;19909;-42
2021/10/03 05:00:33;;;;;;;;;;;;;;;20.92;60.58;98365.69;2076047;28;20311;-42
2021/10/03 05:01:34;;;;;;;;;;;;;;;20.93;60.78;98372.88;2075638;28;19915;-42
2021/10/03 05:02:34;;;;;;;;;;;;;;;20.93;60.39;98368.25;2071655;28;20136;-42
2021/10/03 05:03:36;;;;;;;;;;;;;;;20.94;60.72;98364.44;2068157;28;19916;-42
2021/10/03 05:04:36;;;;;;;;;;;;;;;20.93;60.51;98361.94;2069364;28;20343;-42
2021/10/03 05:05:36;;;;;;;;;;;;;;;20.93;60.50;98370.97;2070686;28;20338;-42
2021/10/03 05:06:37;;;;;;;;;;;;;;;20.94;60.53;98369.09;2073942;28;20210;-42
2021/10/03 05:07:37;;;;;;;;;;;;;;;20.93;60.70;98368.25;2072212;28;20394;-42
2021/10/03 05:08:38;;;;;;;;;;;;;;;20.94;60.33;98369.09;2074762;28;20370;-42
2021/10/03 05:09:38;;;;;;;;;;;;;;;20.93;60.63;98367.41;2076925;28;20295;-42
2021/10/03 05:10:39;;;;;;;;;;;;;;;20.93;60.68;98367.41;2077007;28;20363;-42
2021/10/03 05:11:39;;;;;;;;;;;;;;;20.93;60.49;98372.88;2073999;28;19973;-42
2021/10/03 05:12:39;;;;;;;;;;;;;;;20.93;60.42;98373.72;2077428;28;19917;-42
2021/10/03 05:13:40;;;;;;;;;;;;;;;20.93;60.54;98370.97;2072013;28;19924;-42
2021/10/03 05:14:40;;;;;;;;;;;;;;;20.93;60.45;98373.72;2075653;28;19917;-42
2021/10/03 05:15:42;;;;;;;;;;;;;;;20.93;60.40;98370.97;2076871;28;20275;-42
2021/10/03 05:16:42;;;;;;;;;;;;;;;20.92;60.58;98366.56;2073489;28;19909;-42